Terminal Aerodrome Forecast
Issued by NWS Atlanta, GA

Home | Current Version | Previous Version | Text Only | Print | Product List | Glossary On
Versions: 1 2 3 4 5 6 7 8 9 10 11 12 13 14 15 16 17 18 19 20 21 22 23 24 25 26 27 28 29 30 31 32 33 34 35 36 37
894
FTUS42 KFFC 180949 AAB
TAFATL
TAF AMD
KATL 180949Z 1810/1912 25010KT P6SM OVC010
      TEMPO 1810/1814 3SM BR OVC005
     FM181400 29009KT P6SM OVC008
     FM181700 29009KT P6SM BKN025 BKN040
     FM181900 30008KT P6SM BKN040
     FM190000 31005KT P6SM FEW080 BKN250
     FM191000 05005KT P6SM SCT015 BKN120=

USA.gov is the U.S. government's official web portal to all federal, state and local government web resources and services.